Time;durP1;ratioP1;P1;durP2;ratioP2;P2;SDS_P1;SDS_P2;PMS_P1;PMS_P2;Temp;Humidity;BMP_temperature;BMP_pressure;BME280_temperature;BME280_humidity;BME280_pressure;Samples;Min_cycle;Max_cycle;Signal;HPM_P1;HPM_P2
2023/06/26 08:57:23;;;;;;;8.45;1.95;;;;;;;21.07;62.93;101485.47;5069487;28;20378;-74
2023/06/26 08:59:54;;;;;;;7.82;1.60;;;;;;;21.10;64.08;101492.38;5068426;28;20434;-73
2023/06/26 09:02:23;;;;;;;5.43;1.80;;;;;;;21.06;62.43;101486.59;5067043;28;20033;-74
2023/06/26 09:04:49;;;;;;;8.82;1.77;;;;;;;21.16;60.04;101491.25;5069657;28;20037;-72
2023/06/26 09:07:16;;;;;;;5.53;1.70;;;;;;;21.18;58.71;101500.03;5067526;28;20041;-72
2023/06/26 09:09:41;;;;;;;4.65;1.70;;;;;;;21.32;58.66;101497.53;5064080;28;20079;-72
2023/06/26 09:12:08;;;;;;;4.35;1.50;;;;;;;21.27;57.16;101492.84;5069666;28;20056;-73
2023/06/26 09:14:34;;;;;;;4.57;1.63;;;;;;;21.43;58.44;101496.34;5073251;28;20032;-74
2023/06/26 09:17:00;;;;;;;6.90;1.60;;;;;;;21.49;57.11;101499.91;5068674;28;20025;-72
2023/06/26 09:19:29;;;;;;;8.07;1.42;;;;;;;21.60;57.02;101518.03;5067210;28;20529;-76
2023/06/26 09:21:55;;;;;;;4.50;1.52;;;;;;;21.57;57.50;101510.34;5075832;28;20415;-74
2023/06/26 09:24:21;;;;;;;7.68;1.45;;;;;;;21.56;57.21;101505.97;5067676;28;20059;-71
2023/06/26 09:26:47;;;;;;;6.03;1.30;;;;;;;21.59;57.31;101500.72;5053441;28;20033;-71
2023/06/26 09:29:13;;;;;;;4.68;1.33;;;;;;;21.57;55.96;101510.34;5048546;28;20116;-73
2023/06/26 09:31:43;;;;;;;9.95;1.50;;;;;;;21.62;55.25;101517.75;5051192;28;20037;-74
2023/06/26 09:34:09;;;;;;;6.13;1.83;;;;;;;21.56;53.76;101512.28;5048847;28;20056;-71
2023/06/26 09:36:36;;;;;;;3.45;1.42;;;;;;;21.56;54.22;101526.06;5048559;28;20060;-70
2023/06/26 09:39:10;;;;;;;8.80;1.60;;;;;;;21.67;56.14;101524.06;5049151;28;20112;-69
2023/06/26 09:41:37;;;;;;;4.70;1.70;;;;;;;21.75;54.55;101526.22;5051266;28;20026;-68
2023/06/26 09:44:05;;;;;;;4.50;1.45;;;;;;;21.82;53.13;101536.94;5068201;28;20060;-68
2023/06/26 09:46:31;;;;;;;4.85;1.60;;;;;;;21.79;52.90;101531.19;5062676;28;20043;-68
2023/06/26 09:49:04;;;;;;;5.60;1.42;;;;;;;21.73;50.33;101533.97;5067650;28;20041;-67
2023/06/26 09:51:33;;;;;;;5.63;1.50;;;;;;;21.74;50.30;101551.28;5061956;28;20033;-68
2023/06/26 09:54:00;;;;;;;5.18;1.70;;;;;;;21.67;50.99;101545.28;5049012;28;20064;-70
2023/06/26 09:56:27;;;;;;;3.90;1.33;;;;;;;21.68;52.28;101542.25;5048230;28;20045;-72
2023/06/26 09:58:56;;;;;;;6.60;1.58;;;;;;;21.63;51.16;101544.22;5058622;28;20107;-73
2023/06/26 10:01:21;;;;;;;5.75;1.55;;;;;;;21.72;51.24;101545.25;5066107;28;20154;-69
2023/06/26 10:03:47;;;;;;;4.18;1.48;;;;;;;21.72;51.90;101537.81;5064665;28;20120;-72
2023/06/26 10:06:13;;;;;;;3.15;1.30;;;;;;;21.69;51.28;101543.88;5047381;28;20069;-71
2023/06/26 10:08:39;;;;;;;5.53;1.75;;;;;;;21.76;51.90;101547.16;5036748;28;20538;-70
2023/06/26 10:11:05;;;;;;;4.13;1.45;;;;;;;21.91;48.75;101570.25;5034656;28;20029;-69
2023/06/26 10:13:38;;;;;;;5.47;1.30;;;;;;;21.97;47.23;101568.25;5034683;28;20481;-70
2023/06/26 10:16:07;;;;;;;4.18;1.15;;;;;;;21.87;47.02;101561.69;5034633;28;20041;-70
2023/06/26 10:18:35;;;;;;;4.53;1.20;;;;;;;21.93;47.21;101559.75;5034603;28;20128;-70
2023/06/26 10:21:03;;;;;;;7.38;1.40;;;;;;;22.18;48.32;101560.69;5035111;28;20038;-70
2023/06/26 10:23:30;;;;;;;5.45;1.13;;;;;;;22.20;47.21;101552.97;5045389;28;20040;-69
2023/06/26 10:25:59;;;;;;;4.20;1.20;;;;;;;22.22;45.65;101570.03;5038419;28;20035;-70
2023/06/26 10:28:28;;;;;;;4.43;1.23;;;;;;;22.20;45.77;101569.50;5034131;28;20036;-70
2023/06/26 10:30:55;;;;;;;4.63;1.50;;;;;;;22.11;47.03;101556.31;5034501;28;20025;-70
2023/06/26 10:33:21;;;;;;;5.30;1.52;;;;;;;22.17;47.46;101561.81;5044699;28;20037;-70
2023/06/26 10:35:47;;;;;;;5.40;1.73;;;;;;;22.15;46.16;101569.53;5046260;28;20056;-70
2023/06/26 10:38:13;;;;;;;5.40;1.67;;;;;;;22.20;45.60;101564.81;5033128;28;20037;-69
2023/06/26 10:40:44;;;;;;;3.92;1.20;;;;;;;22.29;46.29;101570.53;5034133;28;20029;-70
2023/06/26 10:43:12;;;;;;;5.93;1.20;;;;;;;22.29;43.92;101585.13;5033139;28;20087;-70
2023/06/26 10:45:43;;;;;;;7.15;1.50;;;;;;;22.30;44.81;101581.28;5035172;28;20033;-70
2023/06/26 10:48:09;;;;;;;1.67;1.10;;;;;;;22.20;41.47;101581.34;5034257;28;20026;-71
2023/06/26 10:50:37;;;;;;;3.58;1.30;;;;;;;22.23;41.92;101596.50;5034737;28;20033;-72
2023/06/26 10:53:22;;;;;;;4.05;1.10;;;;;;;22.28;42.78;101577.16;5033929;28;20088;-71
2023/06/26 10:56:00;;;;;;;4.75;1.50;;;;;;;22.15;43.21;101595.19;5036258;28;20049;-74
2023/06/26 10:58:39;;;;;;;2.95;1.33;;;;;;;22.21;43.00;101576.66;5034306;28;20566;-74
2023/06/26 11:01:11;;;;;;;4.82;1.40;;;;;;;22.30;44.40;101583.22;5032716;28;20476;-72
2023/06/26 11:03:41;;;;;;;5.07;1.45;;;;;;;22.21;43.01;101595.94;5033233;28;20065;-73
2023/06/26 11:06:15;;;;;;;5.00;1.10;;;;;;;22.22;44.04;101605.88;5035176;28;20045;-73
2023/06/26 11:08:51;;;;;;;4.57;1.40;;;;;;;22.26;44.91;101602.25;5033770;28;20036;-73
2023/06/26 11:11:17;;;;;;;3.55;1.25;;;;;;;22.34;43.43;101609.13;5032959;28;20040;-71
2023/06/26 11:13:45;;;;;;;2.33;1.13;;;;;;;22.35;42.71;101596.19;5034316;28;20112;-70
2023/06/26 11:16:12;;;;;;;3.17;1.15;;;;;;;22.29;42.43;101598.09;5034523;28;20057;-71
2023/06/26 11:18:38;;;;;;;3.28;1.23;;;;;;;22.46;43.09;101595.81;5052994;28;20033;-70
2023/06/26 11:21:06;;;;;;;4.93;1.40;;;;;;;22.49;41.36;101610.94;5049473;28;20476;-72
2023/06/26 11:23:33;;;;;;;3.22;1.10;;;;;;;22.58;42.56;101603.69;5033789;28;20029;-70
2023/06/26 11:26:16;;;;;;;6.43;1.27;;;;;;;22.67;43.06;101605.88;5032628;28;20035;-73
2023/06/26 11:28:51;;;;;;;4.10;1.20;;;;;;;22.58;41.43;101609.22;5033940;28;20026;-71
2023/06/26 11:31:31;;;;;;;4.65;1.77;;;;;;;22.59;41.42;101621.09;5047469;28;20039;-71
2023/06/26 11:33:58;;;;;;;1.05;0.70;;;;;;;22.60;40.92;101604.25;5053699;28;20060;-71
2023/06/26 11:36:25;;;;;;;3.50;1.40;;;;;;;22.56;41.88;101616.97;5043916;28;20030;-72
2023/06/26 11:38:58;;;;;;;7.10;1.40;;;;;;;22.46;42.97;101628.06;5033208;28;20428;-72
2023/06/26 11:41:26;;;;;;;4.53;1.50;;;;;;;22.31;42.88;101631.75;5032018;28;20057;-71
2023/06/26 11:43:52;;;;;;;3.63;1.30;;;;;;;22.32;43.50;101627.91;5033651;28;20043;-74
2023/06/26 11:46:19;;;;;;;3.25;1.27;;;;;;;22.24;43.79;101647.78;5033839;28;20461;-71
2023/06/26 11:48:45;;;;;;;2.90;1.00;;;;;;;22.20;41.50;101649.44;5034711;28;20045;-70
2023/06/26 11:51:13;;;;;;;16.92;1.55;;;;;;;22.26;42.13;101645.56;5046522;28;20139;-70
2023/06/26 11:53:43;;;;;;;2.78;1.10;;;;;;;22.42;43.34;101647.13;5033064;28;20033;-70
2023/06/26 11:56:12;;;;;;;4.70;1.35;;;;;;;22.69;43.33;101662.41;5035619;28;20060;-70
2023/06/26 11:58:58;;;;;;;5.25;1.10;;;;;;;22.71;40.99;101660.16;5043382;28;20040;-70
2023/06/26 12:01:24;;;;;;;10.25;1.70;;;;;;;22.61;41.10;101661.06;5044458;28;20089;-70
2023/06/26 12:03:53;;;;;;;6.75;1.30;;;;;;;22.62;41.33;101642.59;5033539;28;20030;-70
2023/06/26 12:06:22;;;;;;;4.88;1.30;;;;;;;22.64;41.51;101651.38;5038690;28;20068;-73
2023/06/26 12:08:47;;;;;;;4.78;1.20;;;;;;;22.71;41.39;101659.34;5045145;28;20025;-70
2023/06/26 12:11:14;;;;;;;1.48;1.10;;;;;;;22.83;43.56;101663.38;5033153;28;20486;-72
2023/06/26 12:13:39;;;;;;;5.10;1.40;;;;;;;22.93;44.33;101658.88;5051485;28;20035;-70
2023/06/26 12:16:04;;;;;;;4.18;1.40;;;;;;;23.22;44.31;101678.28;5050389;28;20025;-71
2023/06/26 12:18:34;;;;;;;4.53;1.38;;;;;;;23.08;42.79;101674.50;5042339;28;20579;-70
2023/06/26 12:21:00;;;;;;;3.58;1.27;;;;;;;23.25;43.39;101665.81;5043030;28;20052;-70
2023/06/26 12:23:32;;;;;;;5.20;1.35;;;;;;;23.17;44.37;101676.38;5037697;28;20056;-69
2023/06/26 12:25:57;;;;;;;12.85;1.88;;;;;;;23.02;44.32;101676.47;5039479;28;20109;-70
2023/06/26 12:28:23;;;;;;;7.22;1.80;;;;;;;22.85;43.88;101667.78;5043156;28;20115;-69
2023/06/26 12:31:15;;;;;;;5.47;1.48;;;;;;;22.97;44.85;101671.81;5034535;28;20080;-70
2023/06/26 12:33:44;;;;;;;4.57;1.80;;;;;;;22.94;43.35;101688.13;5040739;28;20029;-71
2023/06/26 12:36:15;;;;;;;6.95;1.42;;;;;;;23.09;44.13;101671.47;5041538;28;20021;-73
2023/06/26 12:38:41;;;;;;;3.35;1.45;;;;;;;23.00;43.92;101676.75;5033955;28;20487;-68
2023/06/26 12:41:13;;;;;;;3.80;1.17;;;;;;;22.98;42.97;101678.19;5032376;28;20072;-69
2023/06/26 12:43:39;;;;;;;5.57;1.50;;;;;;;23.10;42.75;101675.03;5032454;28;20115;-70
2023/06/26 12:46:08;;;;;;;5.32;1.45;;;;;;;23.04;41.52;101677.03;5032427;28;20055;-77
2023/06/26 12:48:39;;;;;;;4.28;1.20;;;;;;;23.05;41.64;101666.78;5042162;28;20124;-70
2023/06/26 12:51:11;;;;;;;4.15;1.23;;;;;;;23.26;41.12;101672.97;5046436;28;20035;-69
2023/06/26 12:53:39;;;;;;;2.00;0.93;;;;;;;23.49;40.35;101669.44;5045511;28;20060;-70
2023/06/26 12:56:06;;;;;;;4.95;1.27;;;;;;;23.52;41.25;101660.56;5031774;28;20356;-70
2023/06/26 12:58:31;;;;;;;3.22;1.00;;;;;;;23.63;41.04;101671.50;5034813;28;20380;-70
2023/06/26 13:00:57;;;;;;;4.50;1.25;;;;;;;23.46;41.98;101680.22;5029917;28;20025;-70
2023/06/26 13:03:23;;;;;;;4.18;1.33;;;;;;;23.03;41.78;101683.66;5032443;28;20113;-70
2023/06/26 13:05:48;;;;;;;6.63;1.50;;;;;;;22.90;42.31;101681.53;5030861;28;20120;-71
2023/06/26 13:08:16;;;;;;;7.68;1.45;;;;;;;22.87;41.37;101671.91;5032408;28;20389;-70
2023/06/26 13:10:42;;;;;;;4.45;1.27;;;;;;;22.76;41.98;101681.38;5044385;28;20044;-70
2023/06/26 13:13:09;;;;;;;2.95;1.20;;;;;;;22.77;41.77;101683.03;5048684;28;20044;-70
2023/06/26 13:15:34;;;;;;;2.00;1.27;;;;;;;22.85;42.56;101678.84;5030951;28;20469;-70
2023/06/26 13:17:59;;;;;;;1.65;1.02;;;;;;;23.06;42.49;101669.25;5032556;28;20043;-70
2023/06/26 13:20:25;;;;;;;5.15;1.65;;;;;;;23.14;43.23;101668.69;5043617;28;20029;-70
2023/06/26 13:22:51;;;;;;;4.18;1.50;;;;;;;22.94;42.63;101675.16;5042168;28;20037;-73
2023/06/26 13:25:16;;;;;;;3.20;1.45;;;;;;;22.97;43.13;101679.28;5047314;28;20029;-70
2023/06/26 13:27:41;;;;;;;6.53;1.20;;;;;;;22.84;42.99;101678.00;5043897;28;20030;-70
2023/06/26 13:30:08;;;;;;;4.38;1.20;;;;;;;22.87;43.59;101693.97;5049785;28;20041;-72
2023/06/26 13:32:33;;;;;;;4.05;1.50;;;;;;;23.09;42.40;101695.47;5038779;28;20044;-70
2023/06/26 13:34:58;;;;;;;3.78;1.20;;;;;;;23.12;43.09;101689.41;5031917;28;20029;-70
2023/06/26 13:37:23;;;;;;;4.78;1.23;;;;;;;23.27;43.04;101682.91;5031406;28;20038;-69
2023/06/26 13:39:50;;;;;;;2.30;1.10;;;;;;;23.30;41.89;101687.84;5031216;28;20041;-72
2023/06/26 13:42:17;;;;;;;2.53;1.20;;;;;;;23.12;42.78;101698.50;5040910;28;20086;-71
2023/06/26 13:44:42;;;;;;;3.90;1.20;;;;;;;23.03;43.13;101686.41;5055128;28;20037;-69
2023/06/26 13:47:08;;;;;;;7.10;1.60;;;;;;;23.28;42.94;101681.78;5051669;28;20424;-71
2023/06/26 13:49:33;;;;;;;4.10;1.30;;;;;;;23.44;42.56;101686.03;5041212;28;20030;-68
2023/06/26 13:51:59;;;;;;;3.53;1.33;;;;;;;23.72;42.55;101680.78;5037911;28;20047;-68
2023/06/26 13:54:24;;;;;;;5.20;1.30;;;;;;;23.57;42.15;101689.22;5055286;28;20033;-71
2023/06/26 13:56:49;;;;;;;4.90;1.10;;;;;;;23.75;43.04;101690.41;5048232;28;20072;-70
2023/06/26 13:59:15;;;;;;;3.90;1.30;;;;;;;23.72;41.23;101697.38;5040246;28;20373;-70
2023/06/26 14:01:42;;;;;;;4.60;1.10;;;;;;;23.79;42.44;101692.28;5032042;28;20037;-69
2023/06/26 14:04:08;;;;;;;5.90;1.50;;;;;;;23.84;39.79;101697.78;5034840;28;20037;-69
2023/06/26 14:06:34;;;;;;;4.95;1.35;;;;;;;23.90;39.92;101698.56;5039328;28;20144;-71
2023/06/26 14:08:59;;;;;;;5.15;1.13;;;;;;;23.83;38.99;101698.88;5054901;28;20056;-69
2023/06/26 14:11:25;;;;;;;3.05;1.52;;;;;;;23.63;40.17;101694.41;5054809;28;20060;-67
2023/06/26 14:13:50;;;;;;;7.00;1.40;;;;;;;23.42;42.03;101704.03;5048608;28;20377;-70
2023/06/26 14:16:18;;;;;;;4.05;1.40;;;;;;;23.36;42.02;101711.53;5034550;28;20032;-68
2023/06/26 14:18:44;;;;;;;6.32;1.30;;;;;;;23.16;41.95;101713.38;5034729;28;20087;-71
2023/06/26 14:21:09;;;;;;;3.80;1.25;;;;;;;23.23;42.83;101721.31;5044013;28;20072;-69
2023/06/26 14:23:35;;;;;;;3.92;1.00;;;;;;;23.27;41.02;101719.63;5034392;28;20049;-71
2023/06/26 14:26:00;;;;;;;6.20;1.30;;;;;;;23.30;41.07;101715.47;5034445;28;20033;-67
2023/06/26 14:28:25;;;;;;;2.03;1.30;;;;;;;23.18;40.86;101711.16;5034604;28;20453;-70
2023/06/26 14:30:51;;;;;;;4.75;1.20;;;;;;;23.45;42.10;101704.28;5033116;28;20029;-68
2023/06/26 14:33:16;;;;;;;1.77;0.90;;;;;;;23.35;41.47;101709.88;5033986;28;20484;-70
2023/06/26 14:35:41;;;;;;;3.80;1.10;;;;;;;23.04;41.19;101717.59;5034336;28;20030;-70
2023/06/26 14:38:07;;;;;;;1.58;0.93;;;;;;;22.88;42.05;101722.41;5042871;28;20034;-68
2023/06/26 14:40:32;;;;;;;4.32;1.20;;;;;;;22.60;42.63;101716.50;5033739;28;20029;-71
2023/06/26 14:42:57;;;;;;;4.55;1.13;;;;;;;22.64;43.26;101717.59;5036630;28;20028;-68
2023/06/26 14:45:22;;;;;;;5.97;1.23;;;;;;;22.73;42.98;101721.41;5034291;28;20125;-73
2023/06/26 14:47:48;;;;;;;2.33;1.10;;;;;;;22.81;43.70;101726.31;5034102;28;20860;-71
2023/06/26 14:50:13;;;;;;;2.05;1.00;;;;;;;22.62;42.75;101728.09;5036808;28;20120;-68
2023/06/26 14:52:38;;;;;;;2.10;1.10;;;;;;;22.64;41.77;101728.63;5034051;28;20079;-67
2023/06/26 14:55:04;;;;;;;3.22;0.93;;;;;;;22.67;42.61;101725.31;5034133;28;20033;-66
2023/06/26 14:57:30;;;;;;;5.45;1.30;;;;;;;22.79;42.32;101714.72;5036242;28;20082;-69
2023/06/26 14:59:55;;;;;;;4.60;1.20;;;;;;;22.67;42.19;101728.06;5046791;28;20052;-66
2023/06/26 15:02:21;;;;;;;2.47;1.05;;;;;;;22.40;41.15;101718.28;5033348;28;20060;-67
2023/06/26 15:04:46;;;;;;;2.92;1.60;;;;;;;22.39;42.40;101724.06;5034360;28;20029;-68
2023/06/26 15:07:11;;;;;;;10.27;1.67;;;;;;;22.26;42.42;101729.06;5047116;28;20422;-66
2023/06/26 15:09:37;;;;;;;7.20;1.65;;;;;;;22.26;41.82;101725.50;5065763;28;20464;-66
2023/06/26 15:12:02;;;;;;;6.00;1.20;;;;;;;22.17;43.97;101724.44;5067804;28;20021;-70
2023/06/26 15:14:28;;;;;;;8.95;1.83;;;;;;;22.09;43.48;101734.94;5054165;28;20422;-68
2023/06/26 15:16:54;;;;;;;5.00;1.55;;;;;;;22.04;43.76;101725.84;5050051;28;20029;-68
2023/06/26 15:19:19;;;;;;;2.80;1.10;;;;;;;21.96;43.00;101730.03;5043064;28;20038;-68
2023/06/26 15:21:45;;;;;;;4.07;1.25;;;;;;;22.06;43.08;101721.72;5034543;28;20045;-68
2023/06/26 15:24:10;;;;;;;4.63;1.50;;;;;;;22.04;43.39;101731.38;5035601;28;20033;-67
2023/06/26 15:26:36;;;;;;;3.63;1.17;;;;;;;21.97;43.39;101730.84;5042935;28;20399;-67
2023/06/26 15:29:02;;;;;;;2.67;1.00;;;;;;;21.88;42.29;101728.66;5048443;28;20036;-67
2023/06/26 15:31:30;;;;;;;7.50;1.70;;;;;;;21.82;42.68;101728.97;5046797;28;20043;-67
2023/06/26 15:33:56;;;;;;;2.78;1.13;;;;;;;21.93;43.19;101719.56;5048167;28;20029;-68
2023/06/26 15:36:21;;;;;;;2.65;1.00;;;;;;;21.75;42.53;101730.06;5043641;28;20040;-67
2023/06/26 15:38:47;;;;;;;4.78;1.33;;;;;;;21.90;42.90;101723.69;5053449;28;20027;-68
2023/06/26 15:41:12;;;;;;;4.05;1.35;;;;;;;22.03;43.01;101725.03;5037752;28;20105;-68
2023/06/26 15:43:39;;;;;;;3.58;1.20;;;;;;;22.07;42.95;101723.38;5046360;28;20026;-67
2023/06/26 15:46:06;;;;;;;3.78;1.42;;;;;;;22.06;41.76;101724.47;5035551;28;20400;-69
2023/06/26 15:48:32;;;;;;;6.75;1.70;;;;;;;22.13;41.75;101719.50;5047819;28;20037;-68
2023/06/26 15:50:57;;;;;;;6.72;1.70;;;;;;;22.24;41.90;101723.03;5035153;28;20029;-68
2023/06/26 15:53:36;;;;;;;4.57;1.23;;;;;;;22.17;39.63;101725.25;5046655;28;20094;-69
2023/06/26 15:56:02;;;;;;;5.13;1.33;;;;;;;22.02;39.89;101728.91;5035433;28;20045;-69
2023/06/26 15:58:27;;;;;;;7.10;1.30;;;;;;;22.08;41.33;101727.78;5053204;28;20033;-69
2023/06/26 16:00:53;;;;;;;5.03;1.40;;;;;;;22.08;41.72;101727.78;5050771;28;20091;-67
2023/06/26 16:03:18;;;;;;;3.65;1.60;;;;;;;22.13;41.15;101714.00;5047677;28;20025;-69
2023/06/26 16:05:43;;;;;;;2.60;1.00;;;;;;;22.07;41.54;101717.88;5032747;28;20037;-69
2023/06/26 16:08:09;;;;;;;2.67;1.02;;;;;;;22.03;41.88;101722.28;5051538;28;20032;-70
